Terminal Aerodrome Forecast
Issued by NWS Louisville, KY

Home | Current Version | Previous Version | Text Only | Print | Product List | Glossary On
Versions: 1 2 3 4 5 6 7 8 9 10 11 12 13 14 15 16 17 18 19 20 21 22 23 24 25 26 27
929
FTUS43 KLMK 250318 AAA
TAFBWG
TAF AMD
KBWG 250318Z 2503/2524 19015G25KT 6SM -SHRA OVC070 WS020/18055KT
     FM250400 VRB20G35KT 1SM +TSRA OVC015CB
     FM250500 24015G25KT 4SM -SHRA BKN025
     FM250700 27013G22KT P6SM BKN027
     FM251100 28007KT P6SM BKN250=

USA.gov is the U.S. government's official web portal to all federal, state and local government web resources and services.